Time;durP1;ratioP1;P1;durP2;ratioP2;P2;SDS_P1;SDS_P2;PMS_P1;PMS_P2;Temp;Humidity;BMP_temperature;BMP_pressure;BME280_temperature;BME280_humidity;BME280_pressure;Samples;Min_cycle;Max_cycle;Signal;HPM_P1;HPM_P2
2022/08/04 00:01:36;;;;;;;10.02;5.18;;;;;;;24.70;49.00;99661.22;3136380;28;20546;-68
2022/08/04 00:03:16;;;;;;;8.38;4.60;;;;;;;24.70;48.70;99663.88;3136302;28;20063;-68
2022/08/04 00:04:54;;;;;;;6.07;4.63;;;;;;;24.67;48.99;99666.88;3135836;28;20440;-68
2022/08/04 00:06:39;;;;;;;7.28;4.75;;;;;;;24.64;49.04;99661.00;3136339;28;20637;-68
2022/08/04 00:08:20;;;;;;;7.10;4.28;;;;;;;24.63;48.82;99664.69;3129898;28;20060;-68
2022/08/04 00:09:59;;;;;;;7.90;4.65;;;;;;;24.61;49.11;99667.53;3136237;28;20075;-68
2022/08/04 00:11:33;;;;;;;6.60;4.80;;;;;;;24.61;49.12;99666.66;3130323;28;20144;-68
2022/08/04 00:13:08;;;;;;;9.45;5.03;;;;;;;24.59;48.81;99666.00;3129970;28;20045;-68
2022/08/04 00:14:47;;;;;;;8.60;4.95;;;;;;;24.59;49.18;99666.00;3136422;28;20428;-68
2022/08/04 00:16:21;;;;;;;6.75;5.20;;;;;;;24.58;49.00;99670.50;3136179;28;20119;-68
2022/08/04 00:17:57;;;;;;;7.68;5.25;;;;;;;24.57;49.07;99671.50;3136325;28;20067;-68
2022/08/04 00:19:36;;;;;;;7.55;5.18;;;;;;;24.56;49.26;99669.00;3135915;28;20056;-68
2022/08/04 00:21:11;;;;;;;6.28;4.80;;;;;;;24.55;49.20;99670.84;3135951;28;20056;-67
2022/08/04 00:22:45;;;;;;;10.73;5.35;;;;;;;24.50;49.42;99671.31;3136244;28;20060;-67
2022/08/04 00:24:18;;;;;;;8.82;4.43;;;;;;;24.43;49.46;99659.66;3136238;28;20055;-68
2022/08/04 00:25:50;;;;;;;6.15;4.47;;;;;;;24.39;49.58;99668.09;3135946;28;20052;-68
2022/08/04 00:27:22;;;;;;;4.93;4.25;;;;;;;24.34;49.64;99670.38;3136039;28;20107;-68
2022/08/04 00:28:55;;;;;;;8.23;3.92;;;;;;;24.26;49.25;99674.69;3136225;28;20057;-68
2022/08/04 00:30:28;;;;;;;4.70;4.18;;;;;;;24.20;49.29;99675.34;3129946;28;20089;-68
2022/08/04 00:32:02;;;;;;;7.88;4.07;;;;;;;24.15;49.13;99676.81;3136144;28;20045;-68
2022/08/04 00:33:34;;;;;;;7.22;3.88;;;;;;;24.11;49.11;99678.97;3130344;28;20455;-67
2022/08/04 00:35:09;;;;;;;6.20;3.67;;;;;;;24.09;49.34;99680.13;3134988;28;20048;-68
2022/08/04 00:36:43;;;;;;;7.28;3.97;;;;;;;24.07;49.39;99677.59;3135846;28;20124;-67
2022/08/04 00:38:17;;;;;;;5.63;4.43;;;;;;;24.03;48.91;99674.41;3135668;28;20041;-68
2022/08/04 00:39:49;;;;;;;6.88;4.30;;;;;;;24.02;49.38;99683.41;3135870;28;20115;-68
2022/08/04 00:41:30;;;;;;;6.28;4.15;;;;;;;23.96;49.27;99675.19;3136031;28;20044;-67
2022/08/04 00:43:16;;;;;;;5.40;4.10;;;;;;;23.90;49.58;99689.13;3136096;28;20122;-68
2022/08/04 00:45:03;;;;;;;9.02;4.40;;;;;;;23.84;49.73;99691.47;3136075;28;20048;-68
2022/08/04 00:46:57;;;;;;;5.50;4.00;;;;;;;23.78;49.84;99692.09;3135976;28;20045;-68
2022/08/04 00:48:46;;;;;;;7.57;4.40;;;;;;;23.73;49.91;99693.53;3135763;28;20424;-68
2022/08/04 00:50:27;;;;;;;5.63;4.32;;;;;;;23.69;49.83;99682.34;3135794;28;20056;-67
2022/08/04 00:52:17;;;;;;;4.45;3.72;;;;;;;23.73;49.53;99686.41;3135830;28;20053;-68
2022/08/04 00:53:59;;;;;;;4.68;3.72;;;;;;;23.73;49.52;99685.56;3133340;28;20116;-67
2022/08/04 00:55:45;;;;;;;10.18;4.47;;;;;;;23.73;49.60;99685.56;3135725;28;20060;-68
2022/08/04 00:57:39;;;;;;;9.52;4.40;;;;;;;23.70;49.72;99684.06;3135522;28;20055;-67
2022/08/04 00:59:20;;;;;;;6.25;3.92;;;;;;;23.70;49.79;99684.06;3135843;28;20045;-67
2022/08/04 01:01:00;;;;;;;5.90;4.30;;;;;;;23.70;49.54;99689.38;3135432;28;20060;-67
2022/08/04 01:02:37;;;;;;;8.43;4.13;;;;;;;23.74;49.61;99689.88;3134716;28;20385;-67
2022/08/04 01:04:16;;;;;;;9.50;4.40;;;;;;;23.73;49.98;99691.72;3135155;28;20096;-67
2022/08/04 01:06:02;;;;;;;8.55;4.28;;;;;;;23.75;50.30;99689.75;3135540;28;20136;-67
2022/08/04 01:08:05;;;;;;;5.15;3.95;;;;;;;23.72;50.21;99690.06;3135726;28;20057;-67
2022/08/04 01:09:44;;;;;;;5.00;4.13;;;;;;;23.70;49.71;99684.06;3130597;28;20404;-68
2022/08/04 01:11:31;;;;;;;4.93;4.22;;;;;;;23.71;50.07;99691.03;3135176;28;20123;-67
2022/08/04 01:13:24;;;;;;;6.25;3.75;;;;;;;23.70;50.00;99689.38;3129998;28;20064;-67
2022/08/04 01:15:06;;;;;;;9.55;3.80;;;;;;;23.70;50.20;99686.72;3131799;28;20080;-67
2022/08/04 01:16:48;;;;;;;7.07;4.28;;;;;;;23.70;50.46;99691.19;3132287;28;20079;-67
2022/08/04 01:18:27;;;;;;;6.30;3.80;;;;;;;23.67;50.39;99689.66;3135330;28;20085;-67
2022/08/04 01:20:06;;;;;;;4.90;3.92;;;;;;;23.68;50.36;99686.00;3135544;28;20057;-67
2022/08/04 01:22:14;;;;;;;4.93;3.85;;;;;;;23.68;50.77;99686.00;3135221;28;20152;-66
2022/08/04 01:24:17;;;;;;;5.63;4.30;;;;;;;23.62;50.94;99686.63;3106078;28;20421;-66
2022/08/04 01:26:13;;;;;;;6.07;3.85;;;;;;;23.63;50.98;99690.94;3135345;28;20396;-66
2022/08/04 01:28:04;;;;;;;6.90;4.07;;;;;;;23.61;50.83;99696.41;3129369;28;20041;-66
2022/08/04 01:29:43;;;;;;;6.10;4.53;;;;;;;23.61;50.89;99687.63;3131040;28;20048;-67
2022/08/04 01:31:20;;;;;;;5.72;4.43;;;;;;;23.59;51.14;99686.94;3131030;28;20049;-66
2022/08/04 01:33:02;;;;;;;6.82;4.20;;;;;;;23.59;51.22;99685.09;3135071;28;20049;-67
2022/08/04 01:34:37;;;;;;;8.32;4.00;;;;;;;23.60;51.37;99691.25;3135123;28;20061;-66
2022/08/04 01:36:11;;;;;;;9.23;4.30;;;;;;;23.58;51.41;99691.41;3135147;28;20041;-66
2022/08/04 01:37:52;;;;;;;5.13;4.35;;;;;;;23.60;51.37;99692.09;3135195;28;20060;-66
2022/08/04 01:39:43;;;;;;;6.55;3.95;;;;;;;23.60;51.57;99692.09;3130620;28;20048;-67
2022/08/04 01:41:19;;;;;;;7.28;4.10;;;;;;;23.59;51.34;99692.25;3135216;28;20045;-67
2022/08/04 01:42:53;;;;;;;7.97;4.50;;;;;;;23.57;51.68;99691.56;3135218;28;20057;-66
2022/08/04 01:44:26;;;;;;;6.60;5.22;;;;;;;23.51;51.85;99693.00;3133803;28;20044;-66
2022/08/04 01:46:02;;;;;;;5.88;4.68;;;;;;;23.51;52.05;99692.19;3135231;28;20057;-66
2022/08/04 01:47:37;;;;;;;8.23;4.50;;;;;;;23.53;51.75;99695.53;3135337;28;20056;-67
2022/08/04 01:49:11;;;;;;;8.98;4.57;;;;;;;23.53;51.87;99693.69;3135322;28;20171;-66
2022/08/04 01:50:45;;;;;;;5.53;4.18;;;;;;;23.55;51.79;99693.56;3129401;28;20418;-66
2022/08/04 01:52:16;;;;;;;;;;;;;;;23.52;51.67;99688.56;3132884;28;20107;-66
2022/08/04 01:53:48;;;;;;;6.88;4.15;;;;;;;23.53;51.57;99684.91;3133661;28;19924;-66
2022/08/04 01:55:21;;;;;;;6.85;4.63;;;;;;;23.53;51.65;99688.38;3135200;28;20049;-67
2022/08/04 01:56:53;;;;;;;6.55;4.97;;;;;;;23.54;51.87;99686.56;3134960;28;20045;-66
2022/08/04 01:58:28;;;;;;;7.05;4.55;;;;;;;23.50;52.09;99675.41;3134750;28;20045;-67
2022/08/04 02:00:00;;;;;;;8.43;4.43;;;;;;;23.51;52.41;99686.88;3134946;28;20049;-66
2022/08/04 02:01:35;;;;;;;5.55;4.10;;;;;;;23.50;52.10;99680.72;3134687;28;20143;-66
2022/08/04 02:03:07;;;;;;;9.40;4.28;;;;;;;23.48;52.26;99676.53;3135035;28;20072;-66
2022/08/04 02:04:39;;;;;;;7.75;4.70;;;;;;;23.48;52.54;99682.69;3135021;28;20495;-66
2022/08/04 02:06:24;;;;;;;6.88;4.28;;;;;;;23.46;52.38;99681.22;3134815;28;20494;-66
2022/08/04 02:08:05;;;;;;;5.82;4.93;;;;;;;23.41;52.63;99681.66;3128793;28;20041;-66
2022/08/04 02:09:47;;;;;;;13.48;5.20;;;;;;;23.39;52.97;99681.78;3132619;28;20053;-66
2022/08/04 02:11:22;;;;;;;8.75;5.30;;;;;;;23.38;52.70;99681.97;3129753;28;20049;-67
2022/08/04 02:13:04;;;;;;;7.15;4.82;;;;;;;23.37;52.69;99681.13;3129560;28;20048;-67
2022/08/04 02:14:45;;;;;;;6.10;4.95;;;;;;;23.37;52.89;99697.09;3129948;28;20045;-66
2022/08/04 02:16:29;;;;;;;7.88;4.95;;;;;;;23.34;52.91;99686.75;3129619;28;20139;-66
2022/08/04 02:18:04;;;;;;;7.97;5.22;;;;;;;23.33;53.05;99692.22;3134616;28;20537;-67
2022/08/04 02:19:44;;;;;;;9.30;5.53;;;;;;;23.32;52.76;99691.38;3134819;28;20111;-67
2022/08/04 02:21:20;;;;;;;7.20;5.32;;;;;;;23.31;52.96;99683.59;3134472;28;20060;-67
2022/08/04 02:22:58;;;;;;;8.98;5.20;;;;;;;23.30;52.84;99690.69;3134741;28;20059;-67
2022/08/04 02:24:31;;;;;;;7.35;4.88;;;;;;;23.29;53.04;99694.34;3134540;28;20488;-66
2022/08/04 02:26:05;;;;;;;9.20;4.43;;;;;;;23.28;53.13;99698.00;3134561;28;20075;-66
2022/08/04 02:28:06;;;;;;;7.07;5.32;;;;;;;23.26;53.32;99702.63;3134872;28;20052;-67
2022/08/04 02:29:46;;;;;;;10.73;5.95;;;;;;;23.24;53.06;99701.94;3131822;28;20052;-66
2022/08/04 02:31:27;;;;;;;7.25;4.80;;;;;;;23.25;53.42;99708.09;3131735;28;20132;-66
2022/08/04 02:33:04;;;;;;;10.90;5.00;;;;;;;23.23;53.33;99702.94;3134675;28;20067;-67
2022/08/04 02:34:42;;;;;;;5.95;4.82;;;;;;;23.19;53.28;99696.28;3134524;28;20675;-67
2022/08/04 02:36:23;;;;;;;10.10;5.72;;;;;;;23.20;53.45;99697.94;3134374;28;20417;-66
2022/08/04 02:38:04;;;;;;;8.65;4.18;;;;;;;23.19;53.55;99698.06;3134333;28;20049;-67
2022/08/04 02:39:37;;;;;;;7.05;4.95;;;;;;;23.15;53.45;99697.53;3133313;28;20049;-67
2022/08/04 02:41:09;;;;;;;9.43;5.85;;;;;;;23.10;53.53;99694.50;3131957;28;20068;-66
2022/08/04 02:42:41;;;;;;;12.70;6.20;;;;;;;23.07;53.78;99690.34;3132460;28;20060;-67
2022/08/04 02:44:14;;;;;;;7.10;5.05;;;;;;;23.03;53.55;99696.94;3130238;28;20386;-67
2022/08/04 02:45:47;;;;;;;7.80;4.78;;;;;;;22.99;53.80;99694.75;3134381;28;20412;-66
2022/08/04 02:47:21;;;;;;;5.32;4.57;;;;;;;22.93;53.88;99697.00;3134377;28;20084;-66
2022/08/04 02:48:55;;;;;;;5.65;4.95;;;;;;;22.87;53.95;99696.78;3132934;28;20115;-67
2022/08/04 02:50:29;;;;;;;15.23;5.00;;;;;;;22.84;54.45;99700.56;3134423;28;20057;-67
2022/08/04 02:52:02;;;;;;;7.82;4.93;;;;;;;22.82;54.42;99697.22;3134422;28;20131;-67
2022/08/04 02:53:35;;;;;;;9.68;5.43;;;;;;;22.80;54.54;99701.00;3130168;28;20123;-67
2022/08/04 02:55:13;;;;;;;6.28;4.78;;;;;;;22.80;54.66;99704.47;3132185;28;20400;-67
2022/08/04 02:56:46;;;;;;;7.35;4.45;;;;;;;22.76;54.73;99697.81;3134280;28;20469;-67
2022/08/04 02:58:20;;;;;;;8.80;4.70;;;;;;;22.72;54.68;99691.13;3134271;28;20083;-67
2022/08/04 03:00:03;;;;;;;10.88;4.88;;;;;;;22.70;54.94;99698.41;3134526;28;20045;-67
2022/08/04 03:01:36;;;;;;;8.07;4.78;;;;;;;22.62;54.95;99690.34;3133952;28;20349;-67
2022/08/04 03:03:21;;;;;;;6.85;4.80;;;;;;;22.54;55.31;99700.88;3134304;28;20060;-67
2022/08/04 03:05:00;;;;;;;13.15;5.38;;;;;;;22.53;55.23;99691.25;3134265;28;20224;-67
2022/08/04 03:07:10;;;;;;;7.10;4.60;;;;;;;22.52;55.58;99694.91;3134372;28;20353;-67
2022/08/04 03:09:01;;;;;;;9.32;4.80;;;;;;;22.49;55.35;99693.38;3096287;28;20042;-67
2022/08/04 03:11:05;;;;;;;9.98;5.35;;;;;;;22.49;55.21;99704.81;3132078;28;20075;-67
2022/08/04 03:13:03;;;;;;;6.95;5.18;;;;;;;22.48;55.51;99705.81;3134169;28;20045;-67
2022/08/04 03:15:03;;;;;;;6.00;4.35;;;;;;;22.47;55.29;99706.78;3130525;28;20056;-67
2022/08/04 03:17:04;;;;;;;8.48;4.68;;;;;;;22.46;55.26;99706.94;3133145;28;20057;-67
2022/08/04 03:19:09;;;;;;;7.93;4.45;;;;;;;22.45;55.24;99707.91;3129309;28;20455;-64
2022/08/04 03:21:07;;;;;;;6.38;4.60;;;;;;;22.47;55.30;99703.28;3130684;28;20409;-67
2022/08/04 03:23:05;;;;;;;9.95;4.35;;;;;;;22.45;55.47;99703.44;3128979;28;20049;-67
2022/08/04 03:25:09;;;;;;;9.15;4.50;;;;;;;22.44;55.12;99707.06;3133885;28;20117;-67
2022/08/04 03:27:08;;;;;;;7.10;4.88;;;;;;;22.47;55.07;99716.56;3134197;28;20061;-67
2022/08/04 03:29:30;;;;;;;10.30;4.85;;;;;;;22.49;55.00;99714.59;3136705;28;20408;-65
2022/08/04 03:31:17;;;;;;;7.97;5.03;;;;;;;22.50;55.09;99705.66;3134976;28;20053;-67
2022/08/04 03:33:20;;;;;;;6.70;5.00;;;;;;;22.49;55.34;99709.28;3136706;28;20401;-67
2022/08/04 03:35:14;;;;;;;6.95;4.40;;;;;;;22.49;55.23;99715.44;3136699;28;20369;-67
2022/08/04 03:37:11;;;;;;;6.72;5.70;;;;;;;22.44;55.16;99712.38;3130089;28;20072;-67
2022/08/04 03:39:20;;;;;;;7.88;4.68;;;;;;;22.41;55.42;99710.03;3136629;28;20049;-67
2022/08/04 03:41:12;;;;;;;7.53;4.32;;;;;;;22.39;54.97;99712.00;3136654;28;20049;-67
2022/08/04 03:43:29;;;;;;;11.45;5.30;;;;;;;22.38;55.10;99705.00;3136543;28;20114;-67
2022/08/04 03:45:39;;;;;;;6.15;4.72;;;;;;;22.38;55.15;99712.13;3133358;28;20053;-67
2022/08/04 03:47:28;;;;;;;9.20;4.57;;;;;;;22.36;55.03;99709.66;3136474;28;20049;-67
2022/08/04 03:49:45;;;;;;;7.45;4.75;;;;;;;22.32;54.83;99700.28;3136184;28;20049;-67
2022/08/04 03:53:53;;;;;;;5.45;4.50;;;;;;;22.36;55.17;99717.59;3086895;28;20078;-64
2022/08/04 03:55:44;;;;;;;7.97;3.90;;;;;;;22.34;55.25;99708.94;3095179;28;20058;-65
2022/08/04 03:57:49;;;;;;;11.82;4.88;;;;;;;22.30;55.35;99712.03;3098349;28;20054;-67
2022/08/04 03:59:47;;;;;;;8.18;4.80;;;;;;;22.18;55.33;99690.16;3112226;28;20045;-64
2022/08/04 04:01:48;;;;;;;9.05;4.63;;;;;;;22.27;55.71;99710.50;3136311;28;20057;-66
2022/08/04 04:03:58;;;;;;;8.52;4.38;;;;;;;22.30;55.39;99706.72;3136242;28;20048;-67
2022/08/04 04:05:54;;;;;;;7.97;4.10;;;;;;;22.28;55.63;99709.53;3124187;28;20401;-67
2022/08/04 04:08:05;;;;;;;8.70;4.55;;;;;;;22.26;55.36;99707.03;3133869;28;20055;-67
2022/08/04 04:10:12;;;;;;;6.88;4.75;;;;;;;22.32;55.18;99704.78;3134254;28;20045;-67
2022/08/04 04:11:56;;;;;;;6.15;4.47;;;;;;;22.33;55.22;99712.59;3130490;28;20068;-66
2022/08/04 04:13:36;;;;;;;;;;;;;;;22.34;55.07;99708.13;3131812;28;20103;-64
2022/08/04 04:15:29;;;;;;;7.63;4.72;;;;;;;22.35;54.95;99700.00;3136371;28;19925;-67
2022/08/04 04:17:28;;;;;;;6.47;4.90;;;;;;;22.39;54.95;99711.13;3103129;28;20426;-67
2022/08/04 04:19:34;;;;;;;11.05;4.95;;;;;;;22.44;54.68;99714.19;3130801;28;20183;-67
2022/08/04 04:21:31;;;;;;;12.80;5.03;;;;;;;22.47;54.69;99713.91;3135939;28;20088;-67
2022/08/04 04:23:30;;;;;;;8.57;4.78;;;;;;;22.48;54.27;99713.78;3136186;28;20056;-66
2022/08/04 04:25:19;;;;;;;10.57;5.00;;;;;;;22.53;54.58;99723.09;3134548;28;20492;-66
2022/08/04 04:26:58;;;;;;;8.65;5.50;;;;;;;22.55;54.55;99723.78;3135945;28;20053;-66
2022/08/04 04:28:53;;;;;;;7.38;5.88;;;;;;;22.57;54.55;99727.13;3136001;28;20060;-66
2022/08/04 04:30:34;;;;;;;8.75;5.25;;;;;;;22.60;54.73;99722.38;3135593;28;20118;-66
2022/08/04 04:32:21;;;;;;;8.68;5.30;;;;;;;22.59;54.71;99723.31;3135877;28;20727;-66
2022/08/04 04:34:06;;;;;;;12.52;5.65;;;;;;;22.62;54.44;99730.16;3130733;28;20061;-66
2022/08/04 04:35:46;;;;;;;11.85;4.88;;;;;;;22.66;54.04;99720.94;3131484;28;20061;-67
2022/08/04 04:37:35;;;;;;;11.35;4.38;;;;;;;22.69;54.21;99724.13;3136076;28;20060;-66
2022/08/04 04:39:16;;;;;;;10.88;4.72;;;;;;;22.73;54.31;99723.81;3133532;28;20408;-66
2022/08/04 04:41:04;;;;;;;7.40;4.95;;;;;;;22.76;54.38;99731.50;3135582;28;20057;-66
2022/08/04 04:42:58;;;;;;;7.03;5.10;;;;;;;22.80;53.92;99727.53;3134900;28;20140;-66
2022/08/04 04:45:05;;;;;;;7.78;4.95;;;;;;;22.82;54.00;99722.94;3130224;28;20045;-66
2022/08/04 04:46:45;;;;;;;11.13;5.43;;;;;;;22.85;54.23;99727.94;3133988;28;20060;-66
2022/08/04 04:48:30;;;;;;;7.53;5.32;;;;;;;22.83;54.18;99720.09;3135930;28;20044;-66
2022/08/04 04:50:13;;;;;;;6.82;4.82;;;;;;;22.83;54.10;99730.72;3135494;28;20056;-66
2022/08/04 04:51:51;;;;;;;10.77;5.00;;;;;;;22.82;54.21;99731.72;3135570;28;20416;-66
2022/08/04 04:53:29;;;;;;;10.30;5.45;;;;;;;22.84;54.33;99732.41;3135573;28;20052;-67
2022/08/04 04:55:10;;;;;;;7.40;4.32;;;;;;;22.86;54.29;99725.13;3135406;28;20052;-67
2022/08/04 04:56:47;;;;;;;9.60;5.40;;;;;;;22.84;54.28;99735.06;3135689;28;20519;-67
2022/08/04 04:58:21;;;;;;;9.32;5.63;;;;;;;22.84;54.51;99732.41;3135393;28;20044;-66
2022/08/04 04:59:57;;;;;;;8.20;4.97;;;;;;;22.89;54.48;99735.47;3135635;28;20049;-66
2022/08/04 05:02:00;;;;;;;6.75;4.72;;;;;;;22.93;54.24;99736.81;3134749;28;20049;-66
2022/08/04 05:03:57;;;;;;;6.10;4.38;;;;;;;22.92;54.08;99732.50;3112850;28;20065;-67
2022/08/04 05:05:40;;;;;;;7.38;4.75;;;;;;;22.91;54.39;99728.16;3132435;28;20052;-66
2022/08/04 05:07:38;;;;;;;4.95;4.13;;;;;;;22.88;54.19;99732.94;3135521;28;20491;-66
2022/08/04 05:09:22;;;;;;;5.80;4.55;;;;;;;22.89;54.34;99738.13;3133070;28;20049;-67
2022/08/04 05:11:15;;;;;;;5.95;4.70;;;;;;;22.85;54.45;99739.38;3135326;28;20114;-66
2022/08/04 05:13:11;;;;;;;9.13;4.57;;;;;;;22.90;54.52;99741.59;3135234;28;20079;-67
2022/08/04 05:14:47;;;;;;;9.63;4.60;;;;;;;22.98;54.33;99738.22;3131234;28;20064;-68
2022/08/04 05:16:27;;;;;;;6.88;4.53;;;;;;;23.08;53.82;99739.00;3135329;28;20095;-68
2022/08/04 05:18:02;;;;;;;5.60;4.35;;;;;;;23.13;54.03;99742.88;3135286;28;20060;-68
2022/08/04 05:19:49;;;;;;;8.18;4.40;;;;;;;23.19;53.85;99744.09;3132967;28;20053;-68
2022/08/04 05:21:36;;;;;;;7.13;4.10;;;;;;;23.20;53.82;99739.59;3135196;28;20056;-68
2022/08/04 05:23:13;;;;;;;9.32;4.65;;;;;;;23.21;53.80;99738.59;3135029;28;20064;-68
2022/08/04 05:24:48;;;;;;;4.40;3.65;;;;;;;23.26;53.23;99747.78;3135091;28;20048;-68
2022/08/04 05:26:26;;;;;;;10.23;3.88;;;;;;;23.32;53.31;99747.19;3135296;28;20060;-68
2022/08/04 05:28:05;;;;;;;5.80;4.15;;;;;;;23.40;53.09;99749.09;3129743;28;20060;-67
2022/08/04 05:29:44;;;;;;;9.02;4.43;;;;;;;23.46;52.93;99752.97;3129871;28;20131;-68
2022/08/04 05:31:21;;;;;;;8.95;4.30;;;;;;;23.51;52.90;99751.47;3129750;28;20444;-68
2022/08/04 05:32:59;;;;;;;4.07;3.60;;;;;;;23.58;52.65;99747.25;3135224;28;20052;-68
2022/08/04 05:34:41;;;;;;;6.82;3.97;;;;;;;23.64;52.51;99737.81;3129714;28;20080;-68
2022/08/04 05:36:18;;;;;;;6.53;4.03;;;;;;;23.69;52.28;99740.81;3130247;28;20052;-68
2022/08/04 05:37:53;;;;;;;5.93;3.97;;;;;;;23.70;51.69;99742.53;3134635;28;20048;-68
2022/08/04 05:39:28;;;;;;;8.70;3.58;;;;;;;23.75;51.87;99739.41;3135073;28;20468;-68
2022/08/04 05:41:01;;;;;;;8.88;4.45;;;;;;;23.82;51.92;99743.97;3129202;28;20049;-68
2022/08/04 05:42:38;;;;;;;8.50;4.03;;;;;;;23.87;51.48;99746.16;3133820;28;20053;-68
2022/08/04 05:44:12;;;;;;;8.18;4.05;;;;;;;23.92;51.58;99751.00;3134838;28;20110;-68
2022/08/04 05:45:47;;;;;;;9.98;4.10;;;;;;;23.93;51.16;99742.88;3135330;28;20068;-67
2022/08/04 05:47:20;;;;;;;5.35;3.78;;;;;;;23.95;50.99;99748.84;3134862;28;20526;-68
2022/08/04 05:48:53;;;;;;;8.23;4.05;;;;;;;24.01;51.06;99750.06;3135061;28;20053;-68
2022/08/04 05:50:25;;;;;;;8.50;4.68;;;;;;;24.04;51.32;99752.41;3134006;28;20053;-68
2022/08/04 05:52:01;;;;;;;7.20;4.63;;;;;;;24.09;50.84;99749.28;3135022;28;20060;-68
2022/08/04 05:53:34;;;;;;;10.27;5.65;;;;;;;24.12;50.90;99746.31;3132650;28;20045;-68
2022/08/04 05:55:07;;;;;;;;;;;;;;;24.15;51.06;99753.97;3135538;28;20118;-68
2022/08/04 05:56:40;;;;;;;5.88;4.40;;;;;;;24.18;51.15;99751.81;3134999;28;19947;-68
2022/08/04 05:58:13;;;;;;;13.77;3.78;;;;;;;24.19;50.82;99750.81;3131147;28;20114;-68
2022/08/04 05:59:48;;;;;;;;;;;;;;;24.11;50.46;99750.78;3135408;28;20049;-68
2022/08/04 06:01:22;;;;;;;14.50;4.43;;;;;;;24.07;50.68;99744.94;3131489;28;19970;-67
2022/08/04 06:02:56;;;;;;;8.82;3.75;;;;;;;24.05;50.85;99754.09;3134979;28;20068;-68
2022/08/04 06:04:32;;;;;;;8.93;4.03;;;;;;;24.04;50.62;99744.41;3135048;28;20055;-68
2022/08/04 06:06:04;;;;;;;8.18;3.63;;;;;;;24.05;50.79;99752.25;3132640;28;20057;-68
2022/08/04 06:07:36;;;;;;;8.27;4.20;;;;;;;24.09;50.46;99751.94;3135297;28;20110;-68
2022/08/04 06:09:10;;;;;;;7.63;4.38;;;;;;;24.15;50.49;99748.66;3134690;28;20110;-68
2022/08/04 06:10:44;;;;;;;10.88;3.92;;;;;;;24.19;50.46;99742.84;3133824;28;20052;-68
2022/08/04 06:12:21;;;;;;;5.38;4.10;;;;;;;24.21;50.33;99737.38;3134810;28;20056;-68
2022/08/04 06:13:56;;;;;;;14.90;4.28;;;;;;;24.26;50.17;99743.06;3134897;28;20049;-68
2022/08/04 06:15:31;;;;;;;11.75;3.83;;;;;;;24.35;49.69;99741.28;3134909;28;20488;-68
2022/08/04 06:17:06;;;;;;;6.60;3.50;;;;;;;24.46;49.79;99741.00;3128726;28;20056;-68
2022/08/04 06:18:40;;;;;;;9.35;4.10;;;;;;;24.53;49.08;99736.72;3128164;28;20045;-68
2022/08/04 06:20:14;;;;;;;8.55;4.10;;;;;;;24.66;48.71;99742.41;3134729;28;20401;-68
2022/08/04 06:21:48;;;;;;;11.20;4.50;;;;;;;24.85;48.48;99746.63;3134462;28;20663;-68
2022/08/04 06:23:23;;;;;;;13.90;4.47;;;;;;;24.96;48.47;99748.13;3134545;28;20088;-68
2022/08/04 06:24:57;;;;;;;6.30;3.75;;;;;;;25.06;48.65;99742.69;3131122;28;20091;-68
2022/08/04 06:26:33;;;;;;;5.57;3.80;;;;;;;25.15;48.49;99747.88;3131888;28;20053;-68
2022/08/04 06:28:07;;;;;;;7.75;3.97;;;;;;;25.23;48.17;99747.06;3134628;28;20148;-68
2022/08/04 06:29:41;;;;;;;9.07;3.78;;;;;;;25.35;48.31;99744.88;3134620;28;20056;-68
2022/08/04 06:31:31;;;;;;;5.95;4.00;;;;;;;25.43;47.45;99751.06;3130150;28;20485;-68
2022/08/04 06:33:12;;;;;;;4.88;3.53;;;;;;;25.50;47.66;99745.09;3134437;28;20513;-68
2022/08/04 06:34:44;;;;;;;11.77;4.13;;;;;;;25.48;47.30;99742.56;3134372;28;20053;-68
2022/08/04 06:36:17;;;;;;;7.65;3.97;;;;;;;25.54;47.37;99741.91;3134519;28;20056;-68
2022/08/04 06:37:51;;;;;;;15.38;4.00;;;;;;;25.61;47.27;99745.56;3134508;28;20049;-68
2022/08/04 06:39:25;;;;;;;6.47;3.50;;;;;;;25.73;47.73;99737.22;3130537;28;20128;-68
2022/08/04 06:40:57;;;;;;;9.63;3.72;;;;;;;25.84;47.48;99736.91;3134351;28;20049;-68
2022/08/04 06:42:31;;;;;;;9.32;3.88;;;;;;;25.91;46.77;99743.25;3134766;28;20045;-68
2022/08/04 06:44:05;;;;;;;;;;;;;;;25.95;46.83;99733.88;3128607;28;20063;-68
2022/08/04 06:45:40;;;;;;;11.35;4.10;;;;;;;26.00;46.76;99731.56;3134852;28;19924;-68
2022/08/04 06:47:17;;;;;;;15.07;4.13;;;;;;;26.15;47.02;99742.34;3134644;28;20128;-68
2022/08/04 06:48:51;;;;;;;6.32;4.03;;;;;;;26.23;46.18;99730.81;3134372;28;20049;-68
2022/08/04 06:50:23;;;;;;;;;;;;;;;26.31;46.26;99733.44;3134846;28;20601;-69
2022/08/04 06:51:57;;;;;;;7.03;4.07;;;;;;;26.38;46.07;99733.59;3134262;28;19925;-68
2022/08/04 06:53:29;;;;;;;7.43;3.40;;;;;;;26.48;46.03;99731.56;3130602;28;20052;-69
2022/08/04 06:55:01;;;;;;;5.35;3.22;;;;;;;26.61;45.82;99737.19;3134288;28;20045;-68
2022/08/04 06:56:35;;;;;;;9.00;3.63;;;;;;;26.70;45.33;99725.44;3134213;28;20436;-69
2022/08/04 06:58:09;;;;;;;4.88;3.45;;;;;;;26.81;44.39;99732.25;3134427;28;21004;-69
2022/08/04 06:59:42;;;;;;;8.60;3.65;;;;;;;26.88;44.49;99733.19;3128450;28;20049;-69
2022/08/04 07:01:17;;;;;;;4.72;3.00;;;;;;;26.98;43.51;99730.31;3133251;28;20409;-68
2022/08/04 07:02:53;;;;;;;8.90;3.28;;;;;;;27.12;43.56;99723.34;3132847;28;20452;-69
2022/08/04 07:04:25;;;;;;;7.95;3.08;;;;;;;27.22;43.32;99724.00;3134020;28;20049;-69
2022/08/04 07:05:57;;;;;;;9.57;3.63;;;;;;;27.33;43.44;99726.25;3134217;28;20431;-69
2022/08/04 07:07:29;;;;;;;3.72;3.33;;;;;;;27.44;42.96;99728.47;3130850;28;20048;-69
2022/08/04 07:09:02;;;;;;;6.55;3.20;;;;;;;27.57;42.25;99724.38;3134098;28;20349;-69
2022/08/04 07:10:34;;;;;;;5.97;3.70;;;;;;;27.72;42.07;99733.25;3134213;28;20175;-69
2022/08/04 07:12:07;;;;;;;12.77;4.25;;;;;;;27.84;42.11;99726.47;3134056;28;20107;-67
2022/08/04 07:13:42;;;;;;;;;;;;;;;27.92;41.91;99727.38;3134883;28;20044;-67
2022/08/04 07:15:14;;;;;;;5.80;3.47;;;;;;;27.97;41.41;99731.19;3128282;28;19925;-67
2022/08/04 07:16:48;;;;;;;8.53;3.70;;;;;;;28.05;41.64;99725.75;3134344;28;20139;-67
2022/08/04 07:18:22;;;;;;;4.93;3.65;;;;;;;28.15;40.98;99722.78;3134188;28;20310;-67
2022/08/04 07:19:54;;;;;;;9.35;3.15;;;;;;;28.25;40.90;99731.38;3134211;28;20071;-67
2022/08/04 07:21:26;;;;;;;10.93;3.78;;;;;;;28.34;40.82;99727.59;3134056;28;20053;-67
2022/08/04 07:23:00;;;;;;;7.00;3.65;;;;;;;28.45;40.69;99728.16;3134205;28;20049;-67
2022/08/04 07:24:34;;;;;;;7.07;4.40;;;;;;;28.52;40.34;99731.75;3134112;28;20052;-67
2022/08/04 07:26:05;;;;;;;10.45;3.80;;;;;;;28.57;40.27;99722.16;3134410;28;20057;-67
2022/08/04 07:27:37;;;;;;;4.63;4.05;;;;;;;28.69;40.33;99727.00;3134332;28;20045;-67
2022/08/04 07:29:11;;;;;;;6.97;3.70;;;;;;;28.82;39.50;99726.34;3134372;28;20471;-67
2022/08/04 07:30:45;;;;;;;8.05;3.53;;;;;;;28.94;39.46;99724.81;3133741;28;20048;-67
2022/08/04 07:32:20;;;;;;;5.57;3.85;;;;;;;29.04;39.58;99722.66;3134050;28;20053;-67
2022/08/04 07:33:55;;;;;;;8.48;3.10;;;;;;;29.14;39.08;99730.41;3134072;28;20404;-67
2022/08/04 07:35:28;;;;;;;10.13;3.30;;;;;;;29.19;38.94;99726.09;3131510;28;20485;-67
2022/08/04 07:37:00;;;;;;;;;;;;;;;29.25;39.07;99728.06;3134498;28;20053;-65
2022/08/04 07:38:33;;;;;;;9.32;3.95;;;;;;;29.32;38.65;99736.16;3133711;28;19929;-65
2022/08/04 07:40:06;;;;;;;6.63;3.63;;;;;;;29.40;38.75;99736.03;3134111;28;20053;-65
2022/08/04 07:41:39;;;;;;;4.68;3.38;;;;;;;29.51;38.12;99729.28;3134128;28;20110;-66
2022/08/04 07:43:11;;;;;;;4.75;3.33;;;;;;;29.53;37.97;99729.09;3134143;28;20083;-66
2022/08/04 07:44:45;;;;;;;3.92;3.20;;;;;;;29.57;37.67;99733.88;3134389;28;20056;-66
2022/08/04 07:46:17;;;;;;;3.45;3.00;;;;;;;29.56;37.27;99729.53;3133937;28;20053;-66
2022/08/04 07:47:49;;;;;;;4.80;3.47;;;;;;;29.54;37.38;99728.06;3134019;28;20354;-66
2022/08/04 07:49:23;;;;;;;3.90;3.05;;;;;;;29.57;37.45;99731.19;3134001;28;20067;-67
2022/08/04 07:50:56;;;;;;;8.27;3.55;;;;;;;29.55;37.54;99727.88;3133970;28;20041;-66
2022/08/04 07:52:28;;;;;;;5.70;3.17;;;;;;;29.56;37.58;99726.84;3130922;28;20369;-67
2022/08/04 07:54:02;;;;;;;4.65;3.22;;;;;;;29.64;37.70;99720.56;3133749;28;20106;-66
2022/08/04 07:55:34;;;;;;;5.00;3.20;;;;;;;29.73;37.45;99726.59;3133819;28;20052;-67
2022/08/04 07:57:06;;;;;;;4.72;2.90;;;;;;;29.80;37.28;99724.78;3133850;28;20053;-66
2022/08/04 07:58:38;;;;;;;9.70;3.15;;;;;;;29.89;37.44;99726.28;3133870;28;20053;-67